Time;durP1;ratioP1;P1;durP2;ratioP2;P2;SDS_P1;SDS_P2;PMS_P1;PMS_P2;Temp;Humidity;BMP_temperature;BMP_pressure;BME280_temperature;BME280_humidity;BME280_pressure;Samples;Min_cycle;Max_cycle;Signal;HPM_P1;HPM_P2
2023/06/14 00:00:34;;;;;;;5.05;3.30;;;;;;;18.30;47.33;101553.00;4994915;28;20078;-75
2023/06/14 00:03:03;;;;;;;11.40;4.10;;;;;;;18.28;47.17;101556.16;4994634;28;20047;-75
2023/06/14 00:05:32;;;;;;;5.40;3.22;;;;;;;18.28;47.55;101560.81;4994883;28;20138;-75
2023/06/14 00:08:00;;;;;;;3.85;3.20;;;;;;;18.27;47.69;101560.06;4993028;28;20454;-75
2023/06/14 00:10:30;;;;;;;4.07;3.53;;;;;;;18.26;47.12;101560.53;4993471;28;20534;-74
2023/06/14 00:12:57;;;;;;;12.18;4.38;;;;;;;18.25;47.14;101559.81;4994569;28;20506;-75
2023/06/14 00:15:23;;;;;;;7.82;3.30;;;;;;;18.24;47.05;101566.41;4993109;28;20519;-75
2023/06/14 00:17:50;;;;;;;8.18;3.22;;;;;;;18.23;47.80;101559.53;4994620;28;20126;-75
2023/06/14 00:20:17;;;;;;;5.82;2.92;;;;;;;18.21;47.58;101559.25;4994025;28;20051;-75
2023/06/14 00:22:45;;;;;;;5.13;3.75;;;;;;;18.20;47.38;101555.09;4993928;28;20043;-75
2023/06/14 00:25:11;;;;;;;11.18;3.70;;;;;;;18.20;47.49;101560.47;4994413;28;20047;-76
2023/06/14 00:27:55;;;;;;;6.13;3.40;;;;;;;18.20;47.63;101559.72;4995082;28;20511;-75
2023/06/14 00:30:22;;;;;;;8.48;3.20;;;;;;;18.18;47.66;101567.53;4996015;28;20064;-76
2023/06/14 00:32:49;;;;;;;8.35;3.13;;;;;;;18.16;47.77;101561.88;4976516;28;20480;-75
2023/06/14 00:35:17;;;;;;;6.72;3.08;;;;;;;18.15;47.43;101563.09;4994043;28;20090;-76
2023/06/14 00:37:43;;;;;;;11.45;3.30;;;;;;;18.14;47.61;101569.69;4993778;28;20043;-75
2023/06/14 00:40:10;;;;;;;5.30;3.22;;;;;;;18.10;47.50;101561.81;4976331;28;20047;-76
2023/06/14 00:42:37;;;;;;;7.35;3.42;;;;;;;18.08;47.84;101563.50;4976553;28;20145;-76
2023/06/14 00:45:04;;;;;;;8.35;3.50;;;;;;;18.07;47.85;101567.41;4992858;28;20051;-75
2023/06/14 00:47:31;;;;;;;6.55;3.47;;;;;;;18.03;48.19;101559.53;4994166;28;20047;-75
2023/06/14 00:49:58;;;;;;;5.38;3.13;;;;;;;18.00;47.85;101561.19;4992378;28;20562;-75
2023/06/14 00:52:25;;;;;;;6.10;3.35;;;;;;;17.99;47.92;101565.09;4993219;28;20070;-75
2023/06/14 00:54:52;;;;;;;7.82;3.38;;;;;;;17.97;47.87;101561.44;4993944;28;20074;-75
2023/06/14 00:57:20;;;;;;;8.68;3.35;;;;;;;17.93;48.11;101563.56;4992363;28;20109;-75
2023/06/14 00:59:48;;;;;;;4.40;3.92;;;;;;;17.90;47.87;101565.25;4993521;28;20047;-75
2023/06/14 01:02:20;;;;;;;5.70;2.88;;;;;;;17.88;48.41;101562.28;4976986;28;20487;-76
2023/06/14 01:04:49;;;;;;;7.10;3.42;;;;;;;17.84;48.80;101563.69;4995402;28;20057;-75
2023/06/14 01:07:31;;;;;;;5.22;3.03;;;;;;;17.82;47.97;101563.44;4975458;28;20448;-75
2023/06/14 01:10:21;;;;;;;10.00;3.47;;;;;;;17.79;47.92;101567.06;4993470;28;20098;-75
2023/06/14 01:12:58;;;;;;;7.18;3.60;;;;;;;17.73;48.20;101571.63;4975726;28;20131;-75
2023/06/14 01:15:27;;;;;;;10.50;3.45;;;;;;;17.69;48.70;101565.69;4993459;28;20058;-75
2023/06/14 01:17:53;;;;;;;7.78;3.13;;;;;;;17.65;48.42;101569.31;4993399;28;20488;-75
2023/06/14 01:20:22;;;;;;;5.45;3.45;;;;;;;17.62;48.54;101559.44;4991988;28;20057;-75
2023/06/14 01:22:55;;;;;;;3.78;3.08;;;;;;;17.61;48.50;101562.63;4974468;28;20057;-75
2023/06/14 01:25:23;;;;;;;4.53;2.83;;;;;;;17.58;49.08;101561.63;4975486;28;20051;-75
2023/06/14 01:27:52;;;;;;;5.03;3.58;;;;;;;17.57;49.48;101564.78;4993252;28;20082;-75
2023/06/14 01:30:21;;;;;;;4.60;3.17;;;;;;;17.52;49.39;101558.09;4975724;28;20054;-75
2023/06/14 01:32:50;;;;;;;5.30;3.42;;;;;;;17.50;49.57;101570.53;4975319;28;20051;-75
2023/06/14 01:35:17;;;;;;;8.57;3.20;;;;;;;17.46;49.29;101570.72;4974918;28;20539;-75
2023/06/14 01:37:47;;;;;;;4.50;3.15;;;;;;;17.43;49.67;101570.94;4995498;28;20039;-75
2023/06/14 01:40:15;;;;;;;4.32;3.00;;;;;;;17.38;49.47;101574.28;4993383;28;20487;-74
2023/06/14 01:42:44;;;;;;;4.50;3.35;;;;;;;17.34;49.97;101574.47;4975424;28;20067;-74
2023/06/14 01:45:11;;;;;;;9.65;3.30;;;;;;;17.29;50.13;101573.16;4975724;28;20051;-75
2023/06/14 01:47:38;;;;;;;6.68;3.28;;;;;;;17.21;51.17;101574.00;4975053;28;20136;-75
2023/06/14 01:50:05;;;;;;;6.10;3.00;;;;;;;17.15;51.40;101573.94;4992603;28;20047;-75
2023/06/14 01:52:32;;;;;;;9.23;3.20;;;;;;;17.09;51.50;101573.09;4975545;28;20047;-75
2023/06/14 01:55:02;;;;;;;12.98;3.22;;;;;;;17.02;51.46;101580.78;4993313;28;20504;-75
2023/06/14 01:57:29;;;;;;;7.68;3.20;;;;;;;16.99;51.49;101571.69;4975211;28;20086;-75
2023/06/14 01:59:55;;;;;;;10.90;3.28;;;;;;;16.97;51.01;101574.84;4975231;28;20058;-74
2023/06/14 02:02:22;;;;;;;10.88;3.22;;;;;;;16.97;51.20;101566.78;4992588;28;20049;-75
2023/06/14 02:04:49;;;;;;;10.18;3.22;;;;;;;16.96;50.46;101573.38;4992282;28;20129;-75
2023/06/14 02:07:15;;;;;;;3.92;2.90;;;;;;;16.95;51.06;101574.56;4992745;28;20414;-74
2023/06/14 02:09:42;;;;;;;5.00;3.00;;;;;;;16.90;51.81;101577.91;4990906;28;20084;-75
2023/06/14 02:12:09;;;;;;;4.82;3.08;;;;;;;16.88;51.23;101566.88;4994470;28;20122;-74
2023/06/14 02:14:35;;;;;;;4.22;2.70;;;;;;;16.82;51.71;101573.34;4975288;28;20570;-75
2023/06/14 02:17:02;;;;;;;3.30;2.92;;;;;;;16.75;52.26;101563.72;4992780;28;20492;-75
2023/06/14 02:19:28;;;;;;;5.15;3.22;;;;;;;16.71;53.17;101568.53;4974743;28;20520;-75
2023/06/14 02:21:56;;;;;;;3.60;3.30;;;;;;;16.66;52.95;101567.22;4974636;28;20079;-74
2023/06/14 02:24:23;;;;;;;6.50;3.40;;;;;;;16.64;52.04;101568.88;4992755;28;20583;-75
2023/06/14 02:26:50;;;;;;;5.78;3.00;;;;;;;16.55;53.51;101566.97;4991415;28;20051;-75
2023/06/14 02:29:17;;;;;;;7.47;3.58;;;;;;;16.50;53.24;101564.19;4991174;28;20047;-75
2023/06/14 02:31:43;;;;;;;4.38;3.22;;;;;;;16.44;54.17;101564.09;4992657;28;20046;-74
2023/06/14 02:34:11;;;;;;;7.18;3.10;;;;;;;16.39;54.25;101562.06;4991367;28;20659;-76
2023/06/14 02:36:41;;;;;;;7.63;3.22;;;;;;;16.33;55.16;101569.25;4955634;28;20054;-76
2023/06/14 02:39:09;;;;;;;8.45;3.40;;;;;;;16.28;54.15;101569.91;4973166;28;20138;-75
2023/06/14 02:41:36;;;;;;;3.90;3.35;;;;;;;16.23;54.50;101570.53;4973268;28;20051;-76
2023/06/14 02:44:03;;;;;;;8.90;3.42;;;;;;;16.17;54.58;101573.09;4955435;28;20217;-75
2023/06/14 02:46:30;;;;;;;8.43;3.58;;;;;;;16.14;54.72;101573.25;4956975;28;20052;-75
2023/06/14 02:48:57;;;;;;;7.53;3.47;;;;;;;16.09;55.10;101577.31;4973332;28;20155;-75
2023/06/14 02:51:24;;;;;;;5.28;2.92;;;;;;;16.02;56.33;101583.03;4987837;28;20590;-76
2023/06/14 02:53:51;;;;;;;7.53;3.10;;;;;;;15.97;56.29;101586.34;4987648;28;20164;-76
2023/06/14 02:56:19;;;;;;;9.35;3.28;;;;;;;15.92;56.57;101581.59;4955358;28;20537;-76
2023/06/14 02:58:48;;;;;;;3.72;3.25;;;;;;;15.87;56.77;101582.22;4955332;28;20075;-76
2023/06/14 03:01:16;;;;;;;7.78;3.55;;;;;;;15.83;56.77;101587.03;4955208;28;20051;-76
2023/06/14 03:03:43;;;;;;;7.55;3.50;;;;;;;15.79;57.64;101589.13;4954690;28;20350;-76
2023/06/14 03:06:13;;;;;;;4.82;3.03;;;;;;;15.72;57.21;101590.19;4955153;28;20039;-76
2023/06/14 03:08:42;;;;;;;7.00;3.15;;;;;;;15.68;56.52;101590.34;4954658;28;20078;-76
2023/06/14 03:11:13;;;;;;;4.47;3.53;;;;;;;15.67;56.71;101590.81;4955054;28;20048;-75
2023/06/14 03:13:40;;;;;;;10.65;3.80;;;;;;;15.61;56.69;101597.97;4954944;28;20540;-76
2023/06/14 03:16:08;;;;;;;3.60;3.30;;;;;;;15.54;57.10;101601.72;4954888;28;20083;-76
2023/06/14 03:18:38;;;;;;;10.48;3.70;;;;;;;15.49;57.88;101605.03;4954412;28;20051;-76
2023/06/14 03:21:07;;;;;;;8.57;3.63;;;;;;;15.45;58.12;101604.44;4988633;28;20051;-76
2023/06/14 03:23:33;;;;;;;3.80;3.30;;;;;;;15.41;58.13;101603.84;4954614;28;20563;-75
2023/06/14 03:26:02;;;;;;;3.58;3.25;;;;;;;15.37;58.60;101610.56;4954840;28;20043;-75
2023/06/14 03:28:29;;;;;;;9.55;3.65;;;;;;;15.31;59.11;101605.06;4972034;28;20039;-76
2023/06/14 03:30:56;;;;;;;3.70;3.50;;;;;;;15.29;59.79;101604.78;4954281;28;20058;-76
2023/06/14 03:33:25;;;;;;;9.88;3.50;;;;;;;15.26;59.95;101603.00;4954765;28;20180;-76
2023/06/14 03:35:52;;;;;;;4.28;3.15;;;;;;;15.24;59.90;101600.00;4954624;28;20051;-75
2023/06/14 03:38:18;;;;;;;12.05;3.33;;;;;;;15.21;59.10;101611.63;4972343;28;20481;-75
2023/06/14 03:40:46;;;;;;;3.88;3.33;;;;;;;15.20;59.40;101602.84;4954791;28;20536;-75
2023/06/14 03:43:13;;;;;;;5.82;2.95;;;;;;;15.18;58.89;101607.94;4954727;28;20051;-75
2023/06/14 03:45:40;;;;;;;4.07;3.03;;;;;;;15.15;59.83;101611.53;4955412;28;20059;-75
2023/06/14 03:48:09;;;;;;;4.00;3.60;;;;;;;15.14;59.44;101615.41;4957772;28;20051;-75
2023/06/14 03:50:37;;;;;;;8.85;2.92;;;;;;;15.13;59.99;101615.84;4957915;28;20047;-75
2023/06/14 03:53:05;;;;;;;7.10;3.30;;;;;;;15.11;59.69;101629.69;4975591;28;20083;-75
2023/06/14 03:55:33;;;;;;;4.38;2.95;;;;;;;15.12;59.75;101622.41;4959326;28;20063;-75
2023/06/14 03:58:03;;;;;;;8.80;2.90;;;;;;;15.10;59.17;101624.78;4976083;28;20047;-74
2023/06/14 04:00:30;;;;;;;8.63;3.33;;;;;;;15.08;59.90;101625.22;4957389;28;20496;-75
2023/06/14 04:02:57;;;;;;;4.40;3.38;;;;;;;15.08;59.63;101624.50;4975144;28;20058;-75
2023/06/14 04:05:26;;;;;;;6.32;3.30;;;;;;;15.08;60.84;101629.84;4957638;28;20055;-75
2023/06/14 04:07:56;;;;;;;7.03;3.55;;;;;;;15.09;59.80;101631.34;4957202;28;20047;-75
2023/06/14 04:10:22;;;;;;;6.65;3.47;;;;;;;15.13;60.29;101637.31;4975241;28;20472;-75
2023/06/14 04:12:50;;;;;;;7.28;3.17;;;;;;;15.15;58.84;101645.63;4975406;28;20420;-75
2023/06/14 04:15:17;;;;;;;4.13;3.15;;;;;;;15.17;59.01;101645.94;4957162;28;20106;-75
2023/06/14 04:17:50;;;;;;;7.53;3.20;;;;;;;15.21;58.85;101641.13;4957596;28;20134;-75
2023/06/14 04:20:19;;;;;;;3.85;3.33;;;;;;;15.25;59.01;101644.41;4957365;28;20051;-75
2023/06/14 04:22:46;;;;;;;8.95;3.10;;;;;;;15.27;59.44;101647.38;4972895;28;20180;-75
2023/06/14 04:25:13;;;;;;;4.60;3.28;;;;;;;15.33;58.79;101649.03;4989574;28;20047;-75
2023/06/14 04:27:42;;;;;;;7.45;3.15;;;;;;;15.38;58.37;101647.69;4957476;28;20065;-75
2023/06/14 04:30:10;;;;;;;4.00;3.17;;;;;;;15.45;57.83;101650.06;4957075;28;20127;-76
2023/06/14 04:32:43;;;;;;;5.60;3.13;;;;;;;15.50;57.97;101649.44;4957361;28;20055;-75
2023/06/14 04:35:11;;;;;;;3.28;3.08;;;;;;;15.58;58.81;101655.28;4957143;28;20091;-74
2023/06/14 04:37:43;;;;;;;8.57;3.13;;;;;;;15.62;57.74;101651.22;4956941;28;20106;-75
2023/06/14 04:40:10;;;;;;;6.80;3.53;;;;;;;16.11;57.18;101647.44;4974659;28;20043;-75
2023/06/14 04:42:40;;;;;;;4.82;3.33;;;;;;;16.53;55.07;101654.66;4956943;28;20051;-75
2023/06/14 04:45:09;;;;;;;10.27;3.38;;;;;;;16.55;55.28;101660.31;4956456;28;20110;-75
2023/06/14 04:47:38;;;;;;;5.43;3.60;;;;;;;17.15;54.55;101661.97;4956712;28;20139;-76
2023/06/14 04:50:06;;;;;;;6.97;3.53;;;;;;;18.88;50.84;101664.44;4956872;28;20051;-76
2023/06/14 04:52:35;;;;;;;4.10;3.33;;;;;;;20.61;46.40;101668.38;4957084;28;20103;-76
2023/06/14 04:55:03;;;;;;;4.25;3.20;;;;;;;22.19;42.61;101665.97;4956781;28;20047;-76
2023/06/14 04:57:31;;;;;;;4.85;3.10;;;;;;;24.02;39.04;101670.59;4956583;28;20048;-76
2023/06/14 05:00:04;;;;;;;10.38;3.25;;;;;;;25.19;36.69;101665.63;4955975;28;20053;-73
2023/06/14 05:02:31;;;;;;;6.55;3.15;;;;;;;25.96;35.10;101673.00;4957234;28;20503;-76
2023/06/14 05:04:59;;;;;;;5.97;3.25;;;;;;;26.62;33.57;101684.53;4957131;28;20175;-76
2023/06/14 05:07:25;;;;;;;6.55;3.55;;;;;;;26.90;32.30;101673.72;4956807;28;20561;-75
2023/06/14 05:09:52;;;;;;;6.72;3.38;;;;;;;27.21;31.55;101680.19;4956047;28;20461;-76
2023/06/14 05:12:20;;;;;;;6.97;3.22;;;;;;;27.45;31.37;101675.66;4941312;28;20111;-77
2023/06/14 05:14:48;;;;;;;10.27;3.33;;;;;;;27.73;30.55;101680.41;4989425;28;20523;-76
2023/06/14 05:17:17;;;;;;;7.82;3.78;;;;;;;28.03;30.47;101677.84;4956669;28;20138;-77
2023/06/14 05:19:44;;;;;;;5.13;3.25;;;;;;;28.16;30.21;101677.72;4974683;28;20047;-76
2023/06/14 05:22:11;;;;;;;4.05;3.63;;;;;;;28.55;30.14;101681.34;4973224;28;20043;-76
2023/06/14 05:24:37;;;;;;;7.00;3.80;;;;;;;28.91;28.70;101684.00;4973822;28;20047;-76
2023/06/14 05:27:05;;;;;;;7.45;3.45;;;;;;;28.94;29.21;101682.91;4979323;28;20122;-76
2023/06/14 05:29:31;;;;;;;5.25;3.22;;;;;;;28.80;29.27;101687.06;4993448;28;20126;-75
2023/06/14 05:31:58;;;;;;;4.57;3.70;;;;;;;28.61;28.88;101687.41;4993834;28;20408;-77
2023/06/14 05:34:25;;;;;;;5.45;3.63;;;;;;;28.77;28.96;101685.44;4993871;28;20054;-77
2023/06/14 05:36:51;;;;;;;5.85;3.65;;;;;;;28.50;29.18;101684.97;4981985;28;20743;-77
2023/06/14 05:39:18;;;;;;;6.40;3.33;;;;;;;28.37;29.37;101685.16;4998678;28;20205;-76
2023/06/14 05:41:44;;;;;;;6.97;3.47;;;;;;;28.21;29.49;101695.28;4994388;28;20093;-80
2023/06/14 05:44:12;;;;;;;5.10;3.60;;;;;;;27.92;30.55;101707.53;4975969;28;20062;-79
2023/06/14 05:46:39;;;;;;;7.55;3.25;;;;;;;27.71;30.37;101696.63;4976428;28;20058;-79
2023/06/14 05:49:06;;;;;;;9.38;3.33;;;;;;;27.50;31.95;101700.13;4976052;28;20483;-79
2023/06/14 05:51:35;;;;;;;9.70;3.80;;;;;;;27.40;30.61;101703.88;4993739;28;20137;-78
2023/06/14 05:54:01;;;;;;;9.50;3.67;;;;;;;27.16;31.56;101702.97;4993793;28;20141;-76
2023/06/14 05:56:28;;;;;;;3.60;3.17;;;;;;;27.00;31.06;101715.00;4993208;28;20043;-79
2023/06/14 05:58:55;;;;;;;9.40;3.45;;;;;;;26.47;32.29;101711.66;4976529;28;20074;-77
2023/06/14 06:01:21;;;;;;;15.55;3.60;;;;;;;26.29;32.10;101707.78;4993012;28;20139;-76
2023/06/14 06:03:48;;;;;;;5.22;3.63;;;;;;;26.09;32.88;101711.88;4993408;28;20042;-77
2023/06/14 06:06:16;;;;;;;7.65;3.30;;;;;;;25.98;33.32;101719.56;4993363;28;20098;-80
2023/06/14 06:08:42;;;;;;;9.15;3.45;;;;;;;25.68;33.37;101714.38;4971940;28;20893;-80
2023/06/14 06:11:09;;;;;;;7.07;3.65;;;;;;;25.60;33.59;101714.97;4984382;28;20043;-77
2023/06/14 06:13:36;;;;;;;4.65;3.47;;;;;;;25.40;34.24;101721.03;4977717;28;20047;-78
2023/06/14 06:16:03;;;;;;;9.75;3.47;;;;;;;25.43;34.35;101711.81;4974220;28;20051;-78
2023/06/14 06:18:30;;;;;;;6.35;3.53;;;;;;;25.41;33.80;101722.50;4972611;28;20049;-78
2023/06/14 06:20:57;;;;;;;10.65;3.17;;;;;;;25.05;35.11;101719.34;4974127;28;20054;-78
2023/06/14 06:23:23;;;;;;;5.18;3.10;;;;;;;24.84;35.24;101721.81;4971893;28;20090;-80
2023/06/14 06:25:50;;;;;;;8.93;3.33;;;;;;;24.63;34.44;101722.84;4970719;28;20158;-78
2023/06/14 06:28:17;;;;;;;8.32;4.65;;;;;;;24.56;35.09;101727.63;4972825;28;20074;-78
2023/06/14 06:30:43;;;;;;;6.38;3.22;;;;;;;24.57;34.69;101720.94;4973492;28;20074;-78
2023/06/14 06:33:10;;;;;;;6.30;3.45;;;;;;;24.54;35.23;101723.94;4973041;28;20495;-78
2023/06/14 06:35:37;;;;;;;10.00;4.10;;;;;;;24.31;36.11;101722.75;4974129;28;20372;-78
2023/06/14 06:38:03;;;;;;;6.57;3.33;;;;;;;24.34;35.59;101725.19;4973602;28;20075;-80
2023/06/14 06:40:30;;;;;;;7.13;3.72;;;;;;;24.33;35.98;101725.69;4973535;28;20044;-78
2023/06/14 06:42:57;;;;;;;5.72;3.45;;;;;;;24.26;35.25;101735.91;4972509;28;20063;-78
2023/06/14 06:45:26;;;;;;;7.25;3.13;;;;;;;24.21;35.09;101736.69;4963455;28;20062;-78
2023/06/14 06:47:52;;;;;;;10.45;3.78;;;;;;;24.27;35.77;101737.38;4981608;28;20102;-79
2023/06/14 06:50:25;;;;;;;10.93;3.28;;;;;;;24.25;35.62;101742.59;4973646;28;20054;-79
2023/06/14 06:52:52;;;;;;;8.52;3.38;;;;;;;24.30;35.20;101741.06;4973684;28;20065;-78
2023/06/14 06:55:20;;;;;;;9.13;2.83;;;;;;;24.35;35.82;101748.44;4971710;28;20048;-77
2023/06/14 06:57:47;;;;;;;9.45;3.28;;;;;;;24.33;35.20;101744.75;4972119;28;20579;-78
2023/06/14 07:00:14;;;;;;;9.02;3.10;;;;;;;24.40;35.33;101746.88;4987911;28;20052;-78
2023/06/14 07:02:41;;;;;;;3.53;3.22;;;;;;;24.52;35.19;101753.66;4973336;28;20054;-78
2023/06/14 07:05:08;;;;;;;10.50;4.15;;;;;;;24.53;35.54;101753.16;4973004;28;20050;-77
2023/06/14 07:07:35;;;;;;;4.45;2.90;;;;;;;24.54;35.01;101751.91;4973585;28;20075;-78
2023/06/14 07:10:04;;;;;;;3.42;2.92;;;;;;;24.68;35.12;101755.47;4971250;28;20055;-78
2023/06/14 07:12:33;;;;;;;5.05;3.10;;;;;;;24.69;35.26;101748.03;4973552;28;20497;-78
2023/06/14 07:15:00;;;;;;;6.55;3.40;;;;;;;24.77;34.83;101763.28;4973439;28;20070;-78
2023/06/14 07:17:28;;;;;;;6.35;3.25;;;;;;;24.83;35.30;101760.44;4971686;28;20559;-79
2023/06/14 07:19:55;;;;;;;3.60;3.25;;;;;;;25.04;35.23;101766.16;5000946;28;20516;-78
2023/06/14 07:22:22;;;;;;;7.10;3.05;;;;;;;25.12;34.08;101765.06;4977272;28;20051;-79
2023/06/14 07:24:48;;;;;;;6.20;2.90;;;;;;;25.25;33.22;101769.81;4976342;28;20103;-78
2023/06/14 07:27:15;;;;;;;4.50;2.88;;;;;;;25.15;33.97;101771.47;4976639;28;20079;-77
2023/06/14 07:29:41;;;;;;;4.68;4.25;;;;;;;25.30;33.19;101771.72;4976918;28;20424;-77
2023/06/14 07:32:08;;;;;;;12.13;3.08;;;;;;;25.31;33.19;101769.72;4976437;28;20040;-77
2023/06/14 07:34:34;;;;;;;4.03;2.75;;;;;;;25.24;33.10;101771.78;4976652;28;20051;-78
2023/06/14 07:37:02;;;;;;;5.38;3.13;;;;;;;25.38;32.96;101778.03;4976157;28;20491;-77
2023/06/14 07:39:28;;;;;;;8.20;2.85;;;;;;;25.52;33.22;101774.09;4975356;28;20126;-74
2023/06/14 07:41:55;;;;;;;6.20;2.72;;;;;;;25.54;32.77;101771.59;4976371;28;20043;-75
2023/06/14 07:44:21;;;;;;;6.35;2.85;;;;;;;25.50;32.67;101776.63;4976124;28;20047;-76
2023/06/14 07:46:49;;;;;;;3.95;2.90;;;;;;;25.68;33.15;101772.38;4976217;28;20047;-75
2023/06/14 07:49:16;;;;;;;3.17;2.55;;;;;;;25.77;32.63;101777.44;4975850;28;20052;-75
2023/06/14 07:51:44;;;;;;;2.53;2.42;;;;;;;25.90;32.62;101784.91;4976084;28;20498;-75
2023/06/14 07:54:10;;;;;;;4.90;2.40;;;;;;;26.10;31.73;101791.75;4976249;28;20051;-75
2023/06/14 07:56:37;;;;;;;5.68;2.83;;;;;;;26.02;31.69;101783.44;4975897;28;20078;-75
2023/06/14 07:59:05;;;;;;;4.93;2.28;;;;;;;26.29;31.96;101792.41;4976049;28;20461;-76
2023/06/14 08:01:33;;;;;;;3.33;2.30;;;;;;;26.45;31.17;101790.63;4975960;28;20043;-76
2023/06/14 08:03:59;;;;;;;4.70;2.45;;;;;;;26.44;31.06;101789.88;4975706;28;20047;-75
2023/06/14 08:06:26;;;;;;;4.25;2.45;;;;;;;26.69;30.81;101800.59;4975311;28;20047;-75
2023/06/14 08:08:53;;;;;;;4.95;2.20;;;;;;;26.79;30.20;101785.25;4972977;28;20099;-75
2023/06/14 08:11:20;;;;;;;3.40;3.10;;;;;;;26.75;30.80;101791.03;4974150;28;20047;-74
2023/06/14 08:13:47;;;;;;;3.78;2.05;;;;;;;26.73;29.76;101781.88;4974629;28;20074;-76
2023/06/14 08:16:13;;;;;;;4.20;2.08;;;;;;;26.84;29.56;101784.38;4974060;28;20052;-75
2023/06/14 08:18:40;;;;;;;4.00;2.00;;;;;;;26.79;29.03;101793.44;4975476;28;20082;-75
2023/06/14 08:21:07;;;;;;;5.32;2.00;;;;;;;26.89;28.89;101792.44;4974378;28;20083;-75
2023/06/14 08:23:33;;;;;;;3.60;1.73;;;;;;;27.01;28.73;101792.25;4975445;28;20106;-75
2023/06/14 08:26:01;;;;;;;2.78;2.00;;;;;;;27.09;28.87;101795.78;4975339;28;20132;-76
2023/06/14 08:28:28;;;;;;;2.03;1.83;;;;;;;27.22;28.86;101793.00;4976253;28;20523;-76
2023/06/14 08:30:54;;;;;;;2.33;2.17;;;;;;;27.29;28.60;101795.06;4974672;28;20051;-75
2023/06/14 08:33:21;;;;;;;2.10;1.90;;;;;;;27.52;27.79;101798.75;4975103;28;20046;-76
2023/06/14 08:35:47;;;;;;;1.90;1.80;;;;;;;27.58;27.96;101793.16;4974996;28;20047;-76
2023/06/14 08:38:14;;;;;;;1.98;1.88;;;;;;;27.45;28.47;101798.69;4975512;28;20050;-75
2023/06/14 08:40:41;;;;;;;4.07;1.90;;;;;;;27.63;27.63;101795.03;4975561;28;20050;-76
2023/06/14 08:43:09;;;;;;;2.35;2.10;;;;;;;27.78;27.77;101797.16;4974945;28;20051;-76
2023/06/14 08:45:36;;;;;;;3.50;1.90;;;;;;;27.79;27.19;101793.16;4975280;28;20580;-76
2023/06/14 08:48:05;;;;;;;4.28;2.08;;;;;;;27.92;27.09;101797.81;4974003;28;20059;-76
2023/06/14 08:50:32;;;;;;;1.92;1.80;;;;;;;27.97;26.37;101788.75;4974569;28;20046;-75
2023/06/14 08:53:02;;;;;;;4.50;1.83;;;;;;;28.16;26.23;101795.41;4975116;28;20158;-76
2023/06/14 08:55:32;;;;;;;2.97;1.70;;;;;;;28.10;26.48;101786.63;4975365;28;20043;-76
2023/06/14 08:58:03;;;;;;;6.82;2.00;;;;;;;28.12;26.59;101784.09;4975160;28;20054;-76
2023/06/14 09:00:30;;;;;;;1.77;1.67;;;;;;;28.21;26.08;101793.84;4975103;28;20043;-76
2023/06/14 09:02:58;;;;;;;2.08;1.88;;;;;;;27.99;25.28;101795.13;4978080;28;20039;-76
2023/06/14 09:05:26;;;;;;;9.93;1.77;;;;;;;28.06;25.29;101783.50;4974675;28;20039;-78
2023/06/14 09:07:55;;;;;;;3.88;1.65;;;;;;;28.11;25.47;101790.81;4976286;28;20083;-77
2023/06/14 09:10:22;;;;;;;2.45;1.65;;;;;;;28.02;25.28;101790.56;4994789;28;20121;-77
2023/06/14 09:12:49;;;;;;;3.65;2.13;;;;;;;28.04;25.33;101799.72;4994679;28;20039;-88
2023/06/14 09:15:16;;;;;;;1.80;1.70;;;;;;;28.29;26.17;101796.63;4994699;28;20098;-80
2023/06/14 09:17:43;;;;;;;2.75;1.60;;;;;;;28.37;25.86;101802.88;4976439;28;20051;-82
2023/06/14 09:20:10;;;;;;;5.30;1.73;;;;;;;28.26;25.63;101803.19;4993746;28;20047;-82
2023/06/14 09:22:38;;;;;;;4.93;1.67;;;;;;;28.42;25.27;101796.50;4994626;28;20046;-83
2023/06/14 09:25:05;;;;;;;2.13;1.75;;;;;;;28.45;25.76;101803.63;4994444;28;20106;-81
2023/06/14 09:27:32;;;;;;;4.47;1.90;;;;;;;28.71;25.57;101795.19;4993077;28;20077;-82
2023/06/14 09:30:05;;;;;;;2.08;1.98;;;;;;;28.85;25.90;101807.47;4994092;28;20042;-84
2023/06/14 09:32:37;;;;;;;3.80;2.00;;;;;;;28.84;25.02;101797.06;4976607;28;20140;-83
2023/06/14 09:35:08;;;;;;;3.05;1.95;;;;;;;28.94;25.32;101800.75;4993859;28;20472;-82
2023/06/14 09:37:37;;;;;;;3.42;2.50;;;;;;;28.74;25.14;101807.06;5010133;28;20031;-80
2023/06/14 09:40:04;;;;;;;3.33;1.98;;;;;;;28.86;25.00;101808.22;4995364;28;20134;-80
2023/06/14 09:42:31;;;;;;;1.90;1.80;;;;;;;28.92;24.02;101805.31;4976029;28;20147;-81
2023/06/14 09:44:58;;;;;;;3.63;2.00;;;;;;;29.03;23.42;101802.22;4976103;28;20497;-80
2023/06/14 09:47:25;;;;;;;1.65;1.55;;;;;;;29.23;22.92;101800.63;4993729;28;20053;-79
2023/06/14 09:49:54;;;;;;;4.15;1.52;;;;;;;29.38;23.88;101806.88;4994186;28;20053;-80
2023/06/14 09:52:21;;;;;;;6.28;1.75;;;;;;;29.24;24.33;101805.56;4976435;28;20109;-80
2023/06/14 09:54:52;;;;;;;3.55;1.92;;;;;;;29.19;24.12;101804.44;4976460;28;20046;-81
2023/06/14 09:57:23;;;;;;;2.40;1.77;;;;;;;29.19;24.55;101795.53;4992857;28;20126;-80
2023/06/14 09:59:56;;;;;;;4.55;1.92;;;;;;;29.33;24.86;101796.78;4975810;28;20137;-78
2023/06/14 10:02:28;;;;;;;2.65;1.80;;;;;;;29.46;24.53;101782.94;4993224;28;20053;-79
2023/06/14 10:05:03;;;;;;;4.15;1.85;;;;;;;29.59;24.26;101789.53;4976610;28;20121;-77
2023/06/14 10:07:35;;;;;;;1.90;1.80;;;;;;;29.75;23.93;101782.75;4993811;28;20051;-80
2023/06/14 10:10:02;;;;;;;5.40;1.90;;;;;;;29.69;23.93;101791.16;4976701;28;20059;-84
2023/06/14 10:12:29;;;;;;;4.75;1.98;;;;;;;29.45;23.37;101776.00;5006539;28;20125;-84
2023/06/14 10:14:57;;;;;;;5.00;2.08;;;;;;;29.53;23.44;101773.25;4986859;28;20069;-85
2023/06/14 10:17:55;;;;;;;4.60;1.55;;;;;;;29.72;24.41;101787.31;4993084;28;20343;-81
2023/06/14 10:20:55;;;;;;;1.77;1.67;;;;;;;29.52;22.30;101791.00;4992381;28;20069;-84
2023/06/14 10:23:24;;;;;;;2.55;1.70;;;;;;;29.48;22.43;101794.09;4977278;28;20058;-79
2023/06/14 10:25:56;;;;;;;1.80;1.70;;;;;;;29.62;20.79;101785.69;4993580;28;20042;-79
2023/06/14 10:28:24;;;;;;;1.83;1.70;;;;;;;29.52;21.54;101791.72;4993252;28;20129;-78
2023/06/14 10:31:12;;;;;;;3.28;1.60;;;;;;;29.52;22.55;101786.25;4993794;28;20062;-77
2023/06/14 10:33:53;;;;;;;2.17;1.70;;;;;;;29.66;22.91;101784.03;4992966;28;20094;-80
2023/06/14 10:36:22;;;;;;;2.47;1.58;;;;;;;29.68;22.90;101792.44;4975764;28;20042;-79
2023/06/14 10:39:08;;;;;;;1.52;1.42;;;;;;;29.73;23.55;101785.31;4975749;28;20067;-80
2023/06/14 10:41:37;;;;;;;2.85;1.75;;;;;;;30.02;23.06;101786.56;4975458;28;20257;-80
2023/06/14 10:44:12;;;;;;;2.03;1.70;;;;;;;30.01;22.86;101776.88;4993457;28;20047;-83
2023/06/14 10:46:40;;;;;;;7.97;2.03;;;;;;;29.88;23.83;101774.31;4985925;28;20554;-79
2023/06/14 10:49:09;;;;;;;1.95;1.80;;;;;;;29.84;23.71;101771.22;4994319;28;20479;-81
2023/06/14 10:51:47;;;;;;;4.10;1.92;;;;;;;29.81;23.00;101772.31;4993170;28;20062;-76
2023/06/14 10:54:13;;;;;;;4.97;1.90;;;;;;;29.77;22.94;101778.19;4993383;28;20113;-75
2023/06/14 10:56:51;;;;;;;2.15;1.83;;;;;;;30.01;23.80;101787.84;4996513;28;20043;-77
2023/06/14 10:59:19;;;;;;;1.63;1.50;;;;;;;29.94;22.83;101785.13;4994596;28;20050;-77
2023/06/14 11:01:49;;;;;;;1.80;1.70;;;;;;;29.90;22.98;101771.03;4977950;28;20463;-77
2023/06/14 11:04:20;;;;;;;25.90;19.40;;;;;;;30.15;22.95;101778.13;4995961;28;20055;-78
2023/06/14 11:06:48;;;;;;;;;;;;;;;30.44;23.49;101786.81;4996520;28;20047;-78
2023/06/14 11:09:32;;;;;;;2.03;1.90;;;;;;;30.34;22.98;101776.97;4995380;28;19961;-78
2023/06/14 11:12:01;;;;;;;1.70;1.60;;;;;;;30.34;22.37;101774.25;4978362;28;20138;-78
2023/06/14 11:14:31;;;;;;;1.98;1.83;;;;;;;30.26;22.76;101779.75;4995671;28;20057;-78
2023/06/14 11:16:57;;;;;;;1.95;1.85;;;;;;;30.37;22.69;101779.34;4995451;28;20487;-78
2023/06/14 11:19:25;;;;;;;1.67;1.60;;;;;;;30.48;23.15;101773.44;4997648;28;20085;-77
2023/06/14 11:21:51;;;;;;;1.45;1.45;;;;;;;30.46;22.38;101778.03;5004186;28;20889;-78
2023/06/14 11:24:18;;;;;;;11.73;1.52;;;;;;;30.44;23.50;101775.81;4995744;28;20118;-78
2023/06/14 11:26:47;;;;;;;1.80;1.70;;;;;;;30.44;22.92;101778.56;4996058;28;20039;-77
2023/06/14 11:29:15;;;;;;;8.15;1.75;;;;;;;30.38;22.82;101777.34;4995845;28;20051;-78